createdAt,value
2018-03-20T00:00:23.928Z,2.80
2018-03-20T00:02:57.001Z,2.86
2018-03-20T00:05:27.978Z,3.03
2018-03-20T00:07:59.154Z,2.95
2018-03-20T00:13:09.636Z,2.86
2018-03-20T00:15:42.122Z,2.85
2018-03-20T00:18:13.287Z,3.02
2018-03-20T00:20:44.417Z,3.08
2018-03-20T00:23:15.510Z,3.12
2018-03-20T00:25:47.098Z,3.13
2018-03-20T00:28:17.988Z,3.16
2018-03-20T00:30:49.716Z,3.18
2018-03-20T00:33:21.705Z,3.13
2018-03-20T00:35:52.923Z,3.13
2018-03-20T00:38:24.125Z,3.03
2018-03-20T00:40:55.296Z,2.98
2018-03-20T00:43:26.379Z,2.99
2018-03-20T00:45:58.439Z,3.01
2018-03-20T00:48:29.592Z,3.02
2018-03-20T00:51:00.778Z,2.90
2018-03-20T00:53:32.693Z,2.94
2018-03-20T00:56:03.970Z,2.98
2018-03-20T00:58:35.536Z,2.95
2018-03-20T01:01:22.500Z,2.97
2018-03-20T01:03:54.146Z,2.96
2018-03-20T01:06:25.793Z,2.91
2018-03-20T01:08:57.155Z,2.84
2018-03-20T01:11:28.279Z,2.47
2018-03-20T01:13:59.560Z,2.41
2018-03-20T01:16:34.231Z,2.47
2018-03-20T01:19:06.121Z,2.50
2018-03-20T01:21:37.659Z,2.54
2018-03-20T01:24:09.532Z,2.65
2018-03-20T01:26:41.173Z,2.65
2018-03-20T01:29:12.431Z,2.64
2018-03-20T01:31:44.507Z,2.56
2018-03-20T01:34:19.742Z,2.22
2018-03-20T01:36:51.340Z,2.02
2018-03-20T01:39:22.929Z,1.97
2018-03-20T01:41:54.757Z,1.84
2018-03-20T01:44:26.410Z,1.84
2018-03-20T01:46:59.085Z,1.80
2018-03-20T01:49:31.158Z,1.91
2018-03-20T01:52:02.678Z,1.93
2018-03-20T01:54:34.820Z,1.91
2018-03-20T01:57:06.286Z,1.91
2018-03-20T01:59:40.960Z,1.90
2018-03-20T02:02:13.085Z,2.03
2018-03-20T02:04:44.448Z,2.06
2018-03-20T02:07:16.169Z,2.11
2018-03-20T02:09:47.979Z,2.16
2018-03-20T02:12:19.585Z,2.23
2018-03-20T02:14:51.631Z,2.28
2018-03-20T02:17:23.648Z,2.32
2018-03-20T02:19:55.230Z,2.30
2018-03-20T02:22:26.403Z,2.33
2018-03-20T02:24:57.642Z,2.41
2018-03-20T02:27:29.232Z,2.57
2018-03-20T02:30:00.438Z,2.67
2018-03-20T02:32:34.573Z,2.80
2018-03-20T02:35:06.476Z,2.83
2018-03-20T02:37:37.886Z,2.99
2018-03-20T02:40:10.668Z,2.99
2018-03-20T02:42:41.831Z,2.96
2018-03-20T02:45:15.656Z,3.00
2018-03-20T02:47:47.556Z,2.86
2018-03-20T02:50:20.233Z,2.85
2018-03-20T02:52:52.955Z,2.97
2018-03-20T02:55:24.245Z,3.14
2018-03-20T02:57:55.408Z,2.96
2018-03-20T03:00:27.434Z,2.75
2018-03-20T03:02:59.850Z,2.59
2018-03-20T03:05:31.164Z,2.53
2018-03-20T03:08:03.017Z,2.49
2018-03-20T03:10:38.395Z,2.66
2018-03-20T03:13:19.093Z,2.62
2018-03-20T03:15:50.540Z,2.52
2018-03-20T03:18:21.734Z,2.58
2018-03-20T03:20:52.586Z,2.47
2018-03-20T03:23:24.647Z,2.48
2018-03-20T03:25:56.178Z,2.61
2018-03-20T03:28:27.657Z,2.55
2018-03-20T03:30:59.366Z,2.77
2018-03-20T03:33:30.771Z,2.71
2018-03-20T03:36:01.677Z,2.79
2018-03-20T03:38:33.124Z,3.05
2018-03-20T03:41:10.527Z,3.04
2018-03-20T03:43:43.132Z,2.78
2018-03-20T03:46:15.076Z,2.83
2018-03-20T03:48:45.731Z,2.93
2018-03-20T03:51:16.709Z,3.04
2018-03-20T03:53:47.857Z,2.84
2018-03-20T03:56:19.241Z,2.70
2018-03-20T03:58:50.421Z,2.56
2018-03-20T04:01:22.169Z,2.68
2018-03-20T04:03:53.283Z,2.82
2018-03-20T04:06:23.956Z,2.60
2018-03-20T04:08:56.093Z,2.42
2018-03-20T04:11:28.238Z,2.59
2018-03-20T04:13:59.058Z,2.50
2018-03-20T04:16:30.727Z,2.59
2018-03-20T04:19:02.418Z,2.71
2018-03-20T04:21:34.062Z,2.79
2018-03-20T04:24:05.212Z,2.86
2018-03-20T04:26:37.218Z,2.67
2018-03-20T04:29:08.099Z,2.77
2018-03-20T04:31:41.160Z,2.65
2018-03-20T04:34:14.553Z,2.65
2018-03-20T04:36:45.463Z,2.83
2018-03-20T04:39:16.297Z,2.75
2018-03-20T04:41:47.470Z,2.74
2018-03-20T04:44:19.390Z,2.84
2018-03-20T04:46:50.287Z,2.82
2018-03-20T04:49:26.069Z,2.60
2018-03-20T04:51:56.926Z,2.51
2018-03-20T04:54:30.550Z,2.64
2018-03-20T04:57:04.969Z,2.56
2018-03-20T04:59:37.841Z,2.51
2018-03-20T05:02:09.162Z,2.29
2018-03-20T05:04:39.975Z,2.39
2018-03-20T05:07:10.602Z,2.28
2018-03-20T05:09:42.080Z,2.14
2018-03-20T05:12:13.257Z,2.10
2018-03-20T05:14:44.536Z,2.30
2018-03-20T05:17:17.520Z,2.42
2018-03-20T05:19:48.804Z,2.40
2018-03-20T05:22:20.099Z,2.28
2018-03-20T05:24:51.329Z,2.25
2018-03-20T05:27:22.662Z,2.18
2018-03-20T05:33:04.374Z,2.13
2018-03-20T05:35:35.798Z,2.37
2018-03-20T05:38:07.276Z,2.58
2018-03-20T05:40:40.197Z,2.60
2018-03-20T05:43:11.620Z,2.66
2018-03-20T05:45:45.238Z,2.53
2018-03-20T05:48:17.191Z,2.62
2018-03-20T05:50:48.607Z,2.61
2018-03-20T05:53:21.487Z,2.75
2018-03-20T05:55:54.960Z,2.71
2018-03-20T05:58:26.066Z,2.66
2018-03-20T06:00:58.514Z,2.43
2018-03-20T06:03:30.039Z,2.67
2018-03-20T06:06:01.263Z,2.61
2018-03-20T06:08:32.625Z,2.47
2018-03-20T06:11:03.859Z,2.45
2018-03-20T06:13:38.048Z,2.45
2018-03-20T06:16:10.608Z,2.30
2018-03-20T06:18:42.433Z,2.18
2018-03-20T06:21:14.489Z,2.21
2018-03-20T06:23:46.616Z,2.29
2018-03-20T06:26:17.827Z,2.38
2018-03-20T06:28:49.463Z,2.59
2018-03-20T06:31:22.252Z,2.61
2018-03-20T06:33:55.702Z,2.69
2018-03-20T06:36:27.923Z,2.78
2018-03-20T06:38:59.509Z,2.81
2018-03-20T06:41:31.703Z,2.69
2018-03-20T06:44:03.173Z,2.50
2018-03-20T06:46:35.769Z,2.47
2018-03-20T06:49:08.168Z,2.33
2018-03-20T06:51:39.271Z,2.50
2018-03-20T06:54:12.281Z,2.72
2018-03-20T06:56:46.176Z,2.66
2018-03-20T06:59:19.333Z,2.88
2018-03-20T07:01:51.776Z,2.94
2018-03-20T07:04:23.595Z,3.04
2018-03-20T07:06:55.700Z,3.29
2018-03-20T07:09:28.352Z,3.36
2018-03-20T07:11:59.858Z,3.52
2018-03-20T07:14:31.379Z,3.75
2018-03-20T07:17:03.851Z,3.61
2018-03-20T07:19:36.905Z,3.54
2018-03-20T07:22:08.728Z,3.65
2018-03-20T07:24:47.209Z,3.36
2018-03-20T07:27:18.772Z,3.42
2018-03-20T07:29:50.649Z,3.55
2018-03-20T07:32:23.716Z,3.71
2018-03-20T07:34:57.125Z,3.72
2018-03-20T07:37:28.616Z,3.90
2018-03-20T07:39:59.968Z,4.00
2018-03-20T07:42:32.202Z,4.21
2018-03-20T07:45:08.361Z,4.29
2018-03-20T07:47:42.058Z,4.37
2018-03-20T07:50:15.316Z,4.41
2018-03-20T07:52:50.394Z,4.45
2018-03-20T07:55:21.583Z,4.47
2018-03-20T07:57:53.516Z,4.56
2018-03-20T08:00:29.273Z,4.67
2018-03-20T08:03:01.228Z,4.68
2018-03-20T08:05:32.417Z,4.75
2018-03-20T08:08:03.884Z,4.84
2018-03-20T08:10:35.188Z,4.86
2018-03-20T08:13:06.216Z,4.87
2018-03-20T08:15:39.532Z,4.74
2018-03-20T08:18:10.930Z,5.38
2018-03-20T08:20:43.437Z,5.81
2018-03-20T08:23:17.272Z,5.86
2018-03-20T08:25:48.963Z,5.98
2018-03-20T08:28:21.703Z,5.95
2018-03-20T08:30:54.472Z,5.92
2018-03-20T08:33:31.381Z,6.00
2018-03-20T08:36:02.561Z,5.88
2018-03-20T08:38:35.133Z,5.77
2018-03-20T08:41:07.682Z,5.72
2018-03-20T08:43:39.565Z,6.03
2018-03-20T08:46:11.150Z,5.98
2018-03-20T08:48:42.384Z,6.05
2018-03-20T08:54:14.714Z,6.50
2018-03-20T08:56:46.443Z,6.65
2018-03-20T08:59:18.174Z,6.71
2018-03-20T09:01:50.017Z,6.89
2018-03-20T09:04:22.452Z,7.62
2018-03-20T09:06:54.713Z,7.84
2018-03-20T09:09:26.080Z,7.84
2018-03-20T09:12:00.197Z,8.28
2018-03-20T09:14:32.056Z,8.59
2018-03-20T09:17:05.752Z,8.33
2018-03-20T09:19:39.980Z,8.50
2018-03-20T09:22:10.967Z,8.32
2018-03-20T09:24:42.977Z,9.10
2018-03-20T09:27:14.305Z,9.63
2018-03-20T09:29:45.439Z,9.84
2018-03-20T09:32:17.033Z,9.48
2018-03-20T09:34:56.158Z,9.92
2018-03-20T09:37:27.459Z,10.50
2018-03-20T09:40:04.409Z,10.87
2018-03-20T09:42:35.519Z,11.20
2018-03-20T09:45:08.932Z,11.27
2018-03-20T09:47:40.499Z,11.81
2018-03-20T09:50:14.361Z,11.53
2018-03-20T09:52:47.113Z,11.16
2018-03-20T09:55:20.757Z,10.55
2018-03-20T09:57:52.106Z,10.60
2018-03-20T10:00:24.748Z,11.17
2018-03-20T10:02:56.032Z,11.04
2018-03-20T10:05:28.326Z,10.79
2018-03-20T10:08:02.400Z,10.87
2018-03-20T10:10:35.136Z,11.40
2018-03-20T10:13:14.902Z,12.06
2018-03-20T10:15:47.858Z,12.19
2018-03-20T10:18:20.676Z,12.36
2018-03-20T10:20:53.765Z,11.93
2018-03-20T10:26:01.819Z,11.02
2018-03-20T10:28:36.653Z,10.80
2018-03-20T10:31:12.256Z,10.73
2018-03-20T10:33:46.193Z,11.23
2018-03-20T10:36:18.569Z,11.36
2018-03-20T10:38:50.280Z,11.48
2018-03-20T10:41:24.087Z,11.43
2018-03-20T10:43:56.736Z,12.08
2018-03-20T10:46:29.288Z,12.51
2018-03-20T10:49:03.289Z,13.35
2018-03-20T10:51:36.572Z,13.51
2018-03-20T10:54:08.755Z,13.71
2018-03-20T10:56:42.100Z,14.07
2018-03-20T10:59:13.131Z,14.11
2018-03-20T11:01:47.285Z,14.20
2018-03-20T11:04:19.067Z,13.54
2018-03-20T11:06:50.806Z,13.64
2018-03-20T11:09:23.508Z,13.77
2018-03-20T11:11:55.797Z,13.80
2018-03-20T11:14:30.899Z,14.10
2018-03-20T11:17:05.473Z,14.76
2018-03-20T11:19:47.892Z,15.29
2018-03-20T11:22:21.148Z,15.36
2018-03-20T11:24:52.933Z,15.48
2018-03-20T11:27:49.013Z,15.51
2018-03-20T11:30:26.025Z,14.37
2018-03-20T11:33:02.687Z,14.17
2018-03-20T11:35:53.526Z,14.20
2018-03-20T11:38:30.665Z,14.35
2018-03-20T11:41:03.835Z,14.57
2018-03-20T11:43:35.733Z,14.80
2018-03-20T11:46:08.150Z,14.03
2018-03-20T11:48:58.640Z,14.15
2018-03-20T11:51:30.979Z,14.19
2018-03-20T11:54:02.419Z,14.35
2018-03-20T11:59:03.452Z,13.99
2018-03-20T12:01:36.371Z,14.60
2018-03-20T12:04:08.646Z,15.09
2018-03-20T12:06:46.020Z,14.55
2018-03-20T12:09:26.342Z,14.50
2018-03-20T12:11:57.805Z,14.82
2018-03-20T12:14:32.617Z,14.95
2018-03-20T12:17:03.863Z,14.80
2018-03-20T12:19:37.717Z,14.87
2018-03-20T12:22:10.987Z,15.05
2018-03-20T12:24:43.040Z,15.05
2018-03-20T12:27:16.336Z,14.91
2018-03-20T12:29:49.374Z,15.09
2018-03-20T12:32:22.579Z,15.49
2018-03-20T12:34:54.948Z,15.06
2018-03-20T12:37:30.833Z,14.93
2018-03-20T12:40:03.091Z,15.05
2018-03-20T12:42:35.446Z,15.32
2018-03-20T12:45:13.566Z,15.21
2018-03-20T12:47:52.619Z,15.27
2018-03-20T12:50:24.805Z,15.30
2018-03-20T12:52:56.818Z,15.28
2018-03-20T12:55:31.228Z,14.84
2018-03-20T12:58:03.217Z,14.62
2018-03-20T13:00:34.709Z,15.05
2018-03-20T13:03:06.481Z,15.08
2018-03-20T13:05:38.741Z,15.06
2018-03-20T13:08:13.200Z,14.68
2018-03-20T13:11:00.115Z,14.73
2018-03-20T13:13:31.121Z,14.57
2018-03-20T13:16:03.310Z,14.89
2018-03-20T13:18:35.612Z,15.24
2018-03-20T13:21:09.497Z,15.34
2018-03-20T13:23:41.742Z,15.38
2018-03-20T13:26:14.850Z,14.92
2018-03-20T13:28:49.678Z,15.05
2018-03-20T13:31:22.815Z,15.26
2018-03-20T13:34:03.440Z,15.45
2018-03-20T13:36:36.864Z,15.00
2018-03-20T13:39:09.423Z,14.50
2018-03-20T13:41:44.032Z,14.16
2018-03-20T13:44:17.091Z,14.36
2018-03-20T13:46:50.818Z,14.39
2018-03-20T13:49:24.762Z,14.31
2018-03-20T13:52:03.503Z,14.33
2018-03-20T13:54:40.881Z,14.08
2018-03-20T13:57:17.192Z,13.70
2018-03-20T13:59:49.777Z,13.38
2018-03-20T14:02:25.645Z,13.30
2018-03-20T14:04:57.935Z,13.25
2018-03-20T14:07:41.240Z,13.31
2018-03-20T14:10:12.560Z,13.45
2018-03-20T14:12:45.771Z,13.45
2018-03-20T14:15:19.353Z,13.01
2018-03-20T14:17:52.934Z,12.56
2018-03-20T14:20:26.485Z,12.75
2018-03-20T14:23:05.863Z,12.72
2018-03-20T14:25:41.285Z,12.95
2018-03-20T14:28:13.825Z,12.90
2018-03-20T14:30:55.113Z,12.93
2018-03-20T14:33:30.626Z,12.84
2018-03-20T14:36:04.310Z,13.17
2018-03-20T14:38:36.570Z,12.90
2018-03-20T14:41:09.834Z,12.78
2018-03-20T14:43:51.101Z,12.76
2018-03-20T14:46:23.992Z,12.91
2018-03-20T14:48:56.571Z,13.25
2018-03-20T14:51:29.454Z,13.42
2018-03-20T14:54:01.374Z,13.01
2018-03-20T14:56:33.292Z,12.64
2018-03-20T14:59:05.499Z,12.38
2018-03-20T15:01:38.316Z,12.42
2018-03-20T15:04:11.363Z,12.40
2018-03-20T15:06:43.253Z,12.48
2018-03-20T15:09:15.385Z,12.43
2018-03-20T15:11:48.322Z,12.26
2018-03-20T15:14:22.946Z,12.17
2018-03-20T15:16:55.342Z,12.09
2018-03-20T15:19:32.277Z,12.01
2018-03-20T15:22:06.726Z,12.02
2018-03-20T15:24:41.984Z,12.08
2018-03-20T15:27:15.123Z,11.85
2018-03-20T15:29:46.760Z,11.74
2018-03-20T15:32:18.068Z,11.79
2018-03-20T15:34:49.877Z,11.88
2018-03-20T15:37:22.553Z,11.78
2018-03-20T15:39:57.737Z,11.61
2018-03-20T15:42:30.702Z,11.50
2018-03-20T15:45:13.255Z,11.36
2018-03-20T15:47:44.687Z,11.43
2018-03-20T15:50:17.316Z,11.43
2018-03-20T15:52:49.222Z,11.33
2018-03-20T15:55:21.148Z,11.46
2018-03-20T15:57:54.329Z,11.49
2018-03-20T16:00:31.735Z,11.44
2018-03-20T16:03:04.675Z,11.47
2018-03-20T16:05:37.341Z,11.47
2018-03-20T16:08:11.162Z,11.45
2018-03-20T16:10:43.396Z,11.46
2018-03-20T16:13:17.135Z,11.08
2018-03-20T16:15:51.588Z,11.09
2018-03-20T16:18:24.517Z,11.00
2018-03-20T16:20:55.939Z,10.89
2018-03-20T16:23:35.116Z,10.89
2018-03-20T16:26:09.736Z,10.61
2018-03-20T16:28:42.012Z,10.83
2018-03-20T16:31:16.195Z,10.72
2018-03-20T16:33:47.939Z,10.53
2018-03-20T16:36:23.618Z,10.66
2018-03-20T16:38:59.196Z,10.70
2018-03-20T16:41:36.277Z,10.61
2018-03-20T16:44:10.409Z,10.62
2018-03-20T16:46:44.558Z,10.63
2018-03-20T16:49:19.583Z,10.50
2018-03-20T16:51:54.004Z,10.34
2018-03-20T16:54:32.431Z,10.33
2018-03-20T16:57:06.434Z,10.35
2018-03-20T16:59:41.063Z,10.31
2018-03-20T17:02:20.807Z,10.30
2018-03-20T17:04:55.910Z,10.24
2018-03-20T17:07:29.620Z,10.28
2018-03-20T17:10:09.932Z,10.32
2018-03-20T17:12:44.250Z,10.29
2018-03-20T17:15:24.609Z,2.56
2018-03-20T17:17:57.289Z,10.24
2018-03-20T17:20:32.594Z,10.25
2018-03-20T17:23:12.378Z,10.08
2018-03-20T17:26:01.772Z,10.12
2018-03-20T17:28:39.515Z,10.11
2018-03-20T17:31:11.942Z,10.03
2018-03-20T17:33:46.700Z,10.01
2018-03-20T17:36:22.839Z,9.91
2018-03-20T17:39:06.926Z,9.94
2018-03-20T17:41:42.571Z,9.91
2018-03-20T17:44:20.005Z,9.75
2018-03-20T17:49:44.398Z,9.69
2018-03-20T17:52:24.282Z,9.63
2018-03-20T17:55:27.870Z,9.57
2018-03-20T18:02:12.573Z,9.42
2018-03-20T18:04:51.095Z,9.39
2018-03-20T18:07:26.204Z,9.38
2018-03-20T18:09:58.912Z,9.33
2018-03-20T18:12:33.256Z,9.33
2018-03-20T18:15:08.926Z,9.32
2018-03-20T18:17:41.347Z,9.25
2018-03-20T18:20:18.852Z,9.22
2018-03-20T18:22:53.694Z,9.25
2018-03-20T18:25:29.023Z,9.22
2018-03-20T18:28:05.145Z,9.13
2018-03-20T18:30:40.001Z,9.09
2018-03-20T18:33:17.012Z,9.05
2018-03-20T18:35:53.495Z,9.01
2018-03-20T18:38:28.855Z,8.96
2018-03-20T18:41:07.260Z,8.91
2018-03-20T18:43:47.817Z,8.91
2018-03-20T18:46:30.835Z,8.82
2018-03-20T18:49:10.336Z,8.75
2018-03-20T18:54:40.823Z,8.82
2018-03-20T18:57:17.107Z,8.74
2018-03-20T18:59:53.958Z,8.66
2018-03-20T19:02:33.596Z,8.68
2018-03-20T19:05:20.057Z,8.64
2018-03-20T19:07:57.262Z,8.54
2018-03-20T19:10:32.943Z,8.39
2018-03-20T19:13:06.648Z,8.34
2018-03-20T19:15:41.093Z,8.32
2018-03-20T19:18:20.105Z,8.33
2018-03-20T19:21:01.215Z,8.24
2018-03-20T19:23:35.261Z,8.10
2018-03-20T19:26:12.658Z,8.19
2018-03-20T19:31:32.841Z,8.03
2018-03-20T19:34:09.285Z,7.99
2018-03-20T19:36:46.211Z,7.95
2018-03-20T19:39:22.343Z,7.90
2018-03-20T19:41:55.835Z,7.90
2018-03-20T19:44:32.683Z,7.81
2018-03-20T19:47:11.011Z,7.74
2018-03-20T19:49:46.879Z,7.70
2018-03-20T19:52:22.494Z,7.65
2018-03-20T19:55:00.352Z,7.67
2018-03-20T19:57:35.609Z,7.64
2018-03-20T20:00:18.167Z,7.53
2018-03-20T20:02:54.950Z,7.51
2018-03-20T20:05:35.738Z,7.50
2018-03-20T20:08:10.539Z,7.51
2018-03-20T20:10:45.298Z,7.50
2018-03-20T20:13:20.883Z,7.49
2018-03-20T20:15:54.642Z,7.40
2018-03-20T20:18:27.818Z,7.41
2018-03-20T20:21:01.921Z,7.35
2018-03-20T20:23:36.910Z,7.34
2018-03-20T20:26:11.661Z,7.34
2018-03-20T20:28:46.910Z,7.28
2018-03-20T20:31:25.027Z,7.20
2018-03-20T20:34:00.491Z,7.02
2018-03-20T20:36:35.477Z,7.17
2018-03-20T20:39:10.384Z,7.17
2018-03-20T20:41:44.749Z,7.19
2018-03-20T20:44:18.481Z,7.21
2018-03-20T20:46:56.220Z,7.15
2018-03-20T20:49:32.034Z,7.09
2018-03-20T20:52:08.770Z,7.10
2018-03-20T20:54:44.590Z,7.13
2018-03-20T20:57:18.010Z,7.03
2018-03-20T20:59:52.759Z,6.98
2018-03-20T21:02:28.362Z,7.01
2018-03-20T21:05:00.481Z,6.98
2018-03-20T21:07:32.350Z,6.88
2018-03-20T21:10:05.636Z,6.78
2018-03-20T21:12:37.972Z,6.75
2018-03-20T21:26:07.422Z,6.52
2018-03-20T21:28:41.260Z,6.45
2018-03-20T21:31:15.984Z,6.49
2018-03-20T21:33:47.963Z,6.47
2018-03-20T21:36:22.535Z,6.40
2018-03-20T21:38:54.919Z,6.36
2018-03-20T21:41:29.870Z,6.36
2018-03-20T21:44:15.674Z,6.33
2018-03-20T21:46:48.618Z,6.25
2018-03-20T21:49:20.450Z,6.41
2018-03-20T21:51:51.856Z,6.54
2018-03-20T21:54:26.660Z,6.37
2018-03-20T21:56:59.825Z,6.45
2018-03-20T21:59:30.863Z,6.46
2018-03-20T22:02:03.571Z,6.41
2018-03-20T22:04:34.677Z,6.23
2018-03-20T22:07:09.127Z,6.39
2018-03-20T22:09:40.131Z,6.34
2018-03-20T22:12:11.465Z,6.24
2018-03-20T22:14:42.712Z,6.26
2018-03-20T22:17:14.564Z,6.05
2018-03-20T22:19:46.005Z,5.91
2018-03-20T22:22:17.496Z,5.84
2018-03-20T22:24:48.383Z,5.77
2018-03-20T22:27:20.667Z,5.79
2018-03-20T22:29:52.716Z,5.76
2018-03-20T22:35:02.980Z,5.60
2018-03-20T22:37:34.398Z,5.51
2018-03-20T22:40:06.679Z,5.48
2018-03-20T22:42:38.572Z,5.47
2018-03-20T22:45:10.259Z,5.43
2018-03-20T22:47:45.107Z,5.43
2018-03-20T22:50:17.494Z,5.36
2018-03-20T22:52:49.278Z,5.29
2018-03-20T22:55:22.969Z,5.27
2018-03-20T22:58:01.669Z,5.36
2018-03-20T23:00:34.783Z,5.28
2018-03-20T23:03:07.362Z,5.19
2018-03-20T23:05:39.769Z,5.16
2018-03-20T23:08:11.540Z,5.12
2018-03-20T23:10:43.114Z,5.11
2018-03-20T23:13:14.731Z,5.11
2018-03-20T23:15:47.521Z,5.03
2018-03-20T23:18:24.477Z,4.95
2018-03-20T23:20:56.570Z,4.92
2018-03-20T23:23:40.449Z,4.86
2018-03-20T23:26:12.292Z,4.83
2018-03-20T23:28:50.489Z,4.83
2018-03-20T23:31:22.672Z,4.78
2018-03-20T23:33:54.004Z,4.75
2018-03-20T23:36:26.348Z,4.73
2018-03-20T23:38:57.472Z,4.65
2018-03-20T23:41:31.571Z,4.69
2018-03-20T23:44:02.945Z,4.70
2018-03-20T23:46:34.543Z,4.56
2018-03-20T23:49:06.275Z,4.59
2018-03-20T23:51:38.642Z,4.56
2018-03-20T23:54:10.834Z,4.59
2018-03-20T23:56:43.211Z,4.64
2018-03-20T23:59:14.701Z,4.51
